sensor_id;sensor_type;location;lat;lon;timestamp;pressure;altitude;pressure_sealevel;temperature;humidity
7075;BME280;3578;51.568;6.932;2023-04-06T00:00:52;51751.34;;;-144.14;93.49
7075;BME280;3578;51.568;6.932;2023-04-06T00:03:20;51779.38;;;-144.14;93.52
7075;BME280;3578;51.568;6.932;2023-04-06T00:05:47;51737.31;;;-144.14;93.58
7075;BME280;3578;51.568;6.932;2023-04-06T00:08:14;51763.34;;;-144.14;93.55
7075;BME280;3578;51.568;6.932;2023-04-06T00:10:43;51737.31;;;-144.14;93.71
7075;BME280;3578;51.568;6.932;2023-04-06T00:13:11;51755.34;;;-144.14;93.73
7075;BME280;3578;51.568;6.932;2023-04-06T00:15:39;51683.22;;;-144.14;93.87
7075;BME280;3578;51.568;6.932;2023-04-06T00:18:06;51691.25;;;-144.14;94.03
7075;BME280;3578;51.568;6.932;2023-04-06T00:20:34;51697.25;;;-144.14;94.17
7075;BME280;3578;51.568;6.932;2023-04-06T00:23:01;51711.28;;;-144.14;94.09
7075;BME280;3578;51.568;6.932;2023-04-06T00:25:28;51647.19;;;-144.14;94.31
7075;BME280;3578;51.568;6.932;2023-04-06T00:27:57;51627.16;;;-144.14;94.76
7075;BME280;3578;51.568;6.932;2023-04-06T00:30:25;51563.03;;;-144.14;94.96
7075;BME280;3578;51.568;6.932;2023-04-06T00:32:53;51585.09;;;-144.14;95.12
7075;BME280;3578;51.568;6.932;2023-04-06T00:35:20;51518.97;;;-144.14;95.20
7075;BME280;3578;51.568;6.932;2023-04-06T00:37:47;51498.94;;;-144.14;95.32
7075;BME280;3578;51.568;6.932;2023-04-06T00:40:15;51466.91;;;-144.14;95.40
7075;BME280;3578;51.568;6.932;2023-04-06T00:42:42;51490.94;;;-144.14;95.28
7075;BME280;3578;51.568;6.932;2023-04-06T00:45:11;51486.94;;;-144.14;95.32
7075;BME280;3578;51.568;6.932;2023-04-06T00:47:38;51470.91;;;-144.14;95.40
7075;BME280;3578;51.568;6.932;2023-04-06T00:50:06;51442.88;;;-144.14;95.45
7075;BME280;3578;51.568;6.932;2023-04-06T00:52:34;51430.84;;;-144.14;95.33
7075;BME280;3578;51.568;6.932;2023-04-06T00:55:01;51450.88;;;-144.14;95.31
7075;BME280;3578;51.568;6.932;2023-04-06T00:57:29;51418.81;;;-144.14;95.49
7075;BME280;3578;51.568;6.932;2023-04-06T00:59:56;51438.84;;;-144.14;95.64
7075;BME280;3578;51.568;6.932;2023-04-06T01:02:25;51386.78;;;-144.14;95.72
7075;BME280;3578;51.568;6.932;2023-04-06T01:04:52;51354.72;;;-144.14;95.85
7075;BME280;3578;51.568;6.932;2023-04-06T01:07:19;51340.72;;;-144.14;96.00
7075;BME280;3578;51.568;6.932;2023-04-06T01:09:46;51332.69;;;-144.14;96.18
7075;BME280;3578;51.568;6.932;2023-04-06T01:12:13;51346.72;;;-144.14;95.81
7075;BME280;3578;51.568;6.932;2023-04-06T01:14:40;51362.75;;;-144.14;95.75
7075;BME280;3578;51.568;6.932;2023-04-06T01:17:08;51366.75;;;-144.14;95.76
7075;BME280;3578;51.568;6.932;2023-04-06T01:19:37;51394.78;;;-144.14;95.79
7075;BME280;3578;51.568;6.932;2023-04-06T01:22:06;51380.78;;;-144.14;95.78
7075;BME280;3578;51.568;6.932;2023-04-06T01:24:34;51336.69;;;-144.14;95.89
7075;BME280;3578;51.568;6.932;2023-04-06T01:27:01;51310.66;;;-144.14;95.99
7075;BME280;3578;51.568;6.932;2023-04-06T01:29:29;51328.69;;;-144.14;96.14
7075;BME280;3578;51.568;6.932;2023-04-06T01:31:56;51246.56;;;-144.14;97.00
7075;BME280;3578;51.568;6.932;2023-04-06T01:34:23;51112.38;;;-144.14;97.23
7075;BME280;3578;51.568;6.932;2023-04-06T01:36:50;51110.38;;;-144.14;97.17
7075;BME280;3578;51.568;6.932;2023-04-06T01:39:17;51178.47;;;-144.14;96.73
7075;BME280;3578;51.568;6.932;2023-04-06T01:41:46;51202.50;;;-144.14;96.50
7075;BME280;3578;51.568;6.932;2023-04-06T01:44:15;51202.50;;;-144.14;96.48
7075;BME280;3578;51.568;6.932;2023-04-06T01:46:42;51200.50;;;-144.14;96.33
7075;BME280;3578;51.568;6.932;2023-04-06T01:49:10;51266.59;;;-144.14;96.27
7075;BME280;3578;51.568;6.932;2023-04-06T01:51:37;51210.53;;;-144.14;96.20
7075;BME280;3578;51.568;6.932;2023-04-06T01:54:04;51238.56;;;-144.14;96.24
7075;BME280;3578;51.568;6.932;2023-04-06T01:56:31;51234.56;;;-144.14;96.31
7075;BME280;3578;51.568;6.932;2023-04-06T01:59:00;51212.53;;;-144.14;96.40
7075;BME280;3578;51.568;6.932;2023-04-06T02:01:27;51218.53;;;-144.14;96.42
7075;BME280;3578;51.568;6.932;2023-04-06T02:03:55;51190.50;;;-144.14;96.41
7075;BME280;3578;51.568;6.932;2023-04-06T02:06:22;51204.50;;;-144.14;96.55
7075;BME280;3578;51.568;6.932;2023-04-06T02:08:49;51208.50;;;-144.14;96.55
7075;BME280;3578;51.568;6.932;2023-04-06T02:11:16;51226.53;;;-144.14;96.57
7075;BME280;3578;51.568;6.932;2023-04-06T02:13:43;51198.50;;;-144.14;96.57
7075;BME280;3578;51.568;6.932;2023-04-06T02:16:12;51166.47;;;-144.14;96.89
7075;BME280;3578;51.568;6.932;2023-04-06T02:18:39;51146.44;;;-144.14;96.84
7075;BME280;3578;51.568;6.932;2023-04-06T02:21:06;51174.47;;;-144.14;96.78
7075;BME280;3578;51.568;6.932;2023-04-06T02:23:33;51142.41;;;-144.14;96.80
7075;BME280;3578;51.568;6.932;2023-04-06T02:26:00;51172.47;;;-144.14;96.81
7075;BME280;3578;51.568;6.932;2023-04-06T02:28:27;51132.41;;;-144.14;96.73
7075;BME280;3578;51.568;6.932;2023-04-06T02:30:54;51166.47;;;-144.14;96.73
7075;BME280;3578;51.568;6.932;2023-04-06T02:33:23;51124.41;;;-144.14;96.90
7075;BME280;3578;51.568;6.932;2023-04-06T02:35:50;51132.41;;;-144.14;97.02
7075;BME280;3578;51.568;6.932;2023-04-06T02:38:17;51108.38;;;-144.14;97.09
7075;BME280;3578;51.568;6.932;2023-04-06T02:40:44;51066.31;;;-144.14;97.13
7075;BME280;3578;51.568;6.932;2023-04-06T02:43:11;51074.31;;;-144.14;97.22
7075;BME280;3578;51.568;6.932;2023-04-06T02:45:38;51068.31;;;-144.14;97.29
7075;BME280;3578;51.568;6.932;2023-04-06T02:48:06;51034.28;;;-144.14;97.34
7075;BME280;3578;51.568;6.932;2023-04-06T02:50:34;51006.22;;;-144.14;97.56
7075;BME280;3578;51.568;6.932;2023-04-06T02:53:01;50978.19;;;-144.14;97.50
7075;BME280;3578;51.568;6.932;2023-04-06T02:55:29;50984.19;;;-144.14;97.46
7075;BME280;3578;51.568;6.932;2023-04-06T02:57:56;51014.25;;;-144.14;97.42
7075;BME280;3578;51.568;6.932;2023-04-06T03:00:23;51042.28;;;-144.14;97.42
7075;BME280;3578;51.568;6.932;2023-04-06T03:02:50;51022.25;;;-144.14;97.56
7075;BME280;3578;51.568;6.932;2023-04-06T03:05:17;50990.22;;;-144.14;97.53
7075;BME280;3578;51.568;6.932;2023-04-06T03:07:46;50948.16;;;-144.14;97.65
7075;BME280;3578;51.568;6.932;2023-04-06T03:10:13;50936.13;;;-144.14;97.71
7075;BME280;3578;51.568;6.932;2023-04-06T03:12:40;50950.16;;;-144.14;97.65
7075;BME280;3578;51.568;6.932;2023-04-06T03:15:09;50960.16;;;-144.14;97.62
7075;BME280;3578;51.568;6.932;2023-04-06T03:17:37;50914.09;;;-144.14;97.65
7075;BME280;3578;51.568;6.932;2023-04-06T03:20:05;50932.13;;;-144.14;97.74
7075;BME280;3578;51.568;6.932;2023-04-06T03:22:32;50910.09;;;-144.14;97.78
7075;BME280;3578;51.568;6.932;2023-04-06T03:25:01;50896.09;;;-144.14;97.84
7075;BME280;3578;51.568;6.932;2023-04-06T03:27:28;50892.06;;;-144.14;97.91
7075;BME280;3578;51.568;6.932;2023-04-06T03:29:55;50890.06;;;-144.14;97.97
7075;BME280;3578;51.568;6.932;2023-04-06T03:32:22;50882.06;;;-144.14;98.05
7075;BME280;3578;51.568;6.932;2023-04-06T03:34:49;50894.06;;;-144.14;97.96
7075;BME280;3578;51.568;6.932;2023-04-06T03:37:17;50876.06;;;-144.14;98.05
7075;BME280;3578;51.568;6.932;2023-04-06T03:39:44;50840.00;;;-144.14;98.00
7075;BME280;3578;51.568;6.932;2023-04-06T03:42:12;50811.97;;;-144.14;97.97
7075;BME280;3578;51.568;6.932;2023-04-06T03:44:40;50898.09;;;-144.14;97.89
7075;BME280;3578;51.568;6.932;2023-04-06T03:47:07;50924.13;;;-144.14;97.62
7075;BME280;3578;51.568;6.932;2023-04-06T03:49:35;50906.09;;;-144.14;97.72
7075;BME280;3578;51.568;6.932;2023-04-06T03:52:02;50918.09;;;-144.14;97.75
7075;BME280;3578;51.568;6.932;2023-04-06T03:54:29;50886.06;;;-144.14;97.83
7075;BME280;3578;51.568;6.932;2023-04-06T03:56:56;50894.06;;;-144.14;97.97
7075;BME280;3578;51.568;6.932;2023-04-06T03:59:25;50856.03;;;-144.14;97.96
7075;BME280;3578;51.568;6.932;2023-04-06T04:01:52;50789.94;;;-144.14;98.34
7075;BME280;3578;51.568;6.932;2023-04-06T04:04:19;50693.81;;;-144.14;98.75
7075;BME280;3578;51.568;6.932;2023-04-06T04:06:47;50657.78;;;-144.14;98.97
7075;BME280;3578;51.568;6.932;2023-04-06T04:09:14;50641.75;;;-144.14;98.81
7075;BME280;3578;51.568;6.932;2023-04-06T04:11:41;50635.75;;;-144.14;99.10
7075;BME280;3578;51.568;6.932;2023-04-06T04:14:08;50443.50;;;-144.14;99.68
7075;BME280;3578;51.568;6.932;2023-04-06T04:16:36;50479.53;;;-144.14;99.53
7075;BME280;3578;51.568;6.932;2023-04-06T04:19:05;50553.63;;;-144.14;98.87
7075;BME280;3578;51.568;6.932;2023-04-06T04:21:32;50649.75;;;-144.14;98.75
7075;BME280;3578;51.568;6.932;2023-04-06T04:23:59;50673.78;;;-144.14;98.63
7075;BME280;3578;51.568;6.932;2023-04-06T04:26:26;50663.78;;;-144.14;98.45
7075;BME280;3578;51.568;6.932;2023-04-06T04:28:53;50627.72;;;-144.14;98.73
7075;BME280;3578;51.568;6.932;2023-04-06T04:31:20;50559.66;;;-144.14;99.17
7075;BME280;3578;51.568;6.932;2023-04-06T04:33:49;50491.56;;;-144.14;99.60
7075;BME280;3578;51.568;6.932;2023-04-06T04:36:16;50477.53;;;-144.14;99.55
7075;BME280;3578;51.568;6.932;2023-04-06T04:38:43;50499.56;;;-144.14;99.44
7075;BME280;3578;51.568;6.932;2023-04-06T04:41:10;50501.56;;;-144.14;99.25
7075;BME280;3578;51.568;6.932;2023-04-06T04:43:38;50561.66;;;-144.14;98.92
7075;BME280;3578;51.568;6.932;2023-04-06T04:46:05;50575.66;;;-144.14;99.01
7075;BME280;3578;51.568;6.932;2023-04-06T04:48:32;50509.59;;;-144.14;99.42
7075;BME280;3578;51.568;6.932;2023-04-06T04:51:01;50385.44;;;-144.14;99.80
7075;BME280;3578;51.568;6.932;2023-04-06T04:53:28;50349.38;;;-144.14;100.00
7075;BME280;3578;51.568;6.932;2023-04-06T04:55:55;50387.44;;;-144.14;99.78
7075;BME280;3578;51.568;6.932;2023-04-06T04:58:22;50399.44;;;-144.14;99.98
7075;BME280;3578;51.568;6.932;2023-04-06T05:00:49;50421.47;;;-144.14;99.69
7075;BME280;3578;51.568;6.932;2023-04-06T05:03:20;50493.56;;;-144.14;99.34
7075;BME280;3578;51.568;6.932;2023-04-06T05:05:48;50499.56;;;-144.14;99.31
7075;BME280;3578;51.568;6.932;2023-04-06T05:08:17;50541.63;;;-144.14;99.16
7075;BME280;3578;51.568;6.932;2023-04-06T05:10:44;50573.66;;;-144.14;99.02
7075;BME280;3578;51.568;6.932;2023-04-06T05:13:12;50659.78;;;-144.14;98.49
7075;BME280;3578;51.568;6.932;2023-04-06T05:15:39;50753.88;;;-144.14;97.96
7075;BME280;3578;51.568;6.932;2023-04-06T05:18:07;50783.94;;;-144.14;97.65
7075;BME280;3578;51.568;6.932;2023-04-06T05:20:35;50848.00;;;-144.14;97.45
7075;BME280;3578;51.568;6.932;2023-04-06T05:23:02;50870.03;;;-144.14;97.25
7075;BME280;3578;51.568;6.932;2023-04-06T05:25:32;50900.09;;;-144.14;97.07
7075;BME280;3578;51.568;6.932;2023-04-06T05:27:59;50852.03;;;-144.14;97.74
7075;BME280;3578;51.568;6.932;2023-04-06T05:30:26;50693.81;;;-144.14;98.50
7075;BME280;3578;51.568;6.932;2023-04-06T05:32:53;50697.81;;;-144.14;98.64
7075;BME280;3578;51.568;6.932;2023-04-06T05:35:21;50773.91;;;-144.14;98.51
7075;BME280;3578;51.568;6.932;2023-04-06T05:37:48;50870.03;;;-144.14;97.70
7075;BME280;3578;51.568;6.932;2023-04-06T05:40:15;50874.06;;;-144.14;97.53
7075;BME280;3578;51.568;6.932;2023-04-06T05:42:44;50850.03;;;-144.14;97.65
7075;BME280;3578;51.568;6.932;2023-04-06T05:45:11;50864.03;;;-144.14;97.89
7075;BME280;3578;51.568;6.932;2023-04-06T05:47:43;51026.25;;;-144.14;96.62
7075;BME280;3578;51.568;6.932;2023-04-06T05:50:11;51320.69;;;-144.14;93.33
7075;BME280;3578;51.568;6.932;2023-04-06T05:52:38;51518.97;;;-144.14;90.36
7075;BME280;3578;51.568;6.932;2023-04-06T05:55:09;51687.25;;;-144.14;87.76
7075;BME280;3578;51.568;6.932;2023-04-06T05:57:36;51769.38;;;-144.14;87.11
7075;BME280;3578;51.568;6.932;2023-04-06T06:00:07;51845.50;;;-144.14;86.17
7075;BME280;3578;51.568;6.932;2023-04-06T06:02:35;51829.47;;;-144.14;87.59
7075;BME280;3578;51.568;6.932;2023-04-06T06:05:03;51821.44;;;-144.14;88.60
7075;BME280;3578;51.568;6.932;2023-04-06T06:07:30;51835.47;;;-144.14;87.57
7075;BME280;3578;51.568;6.932;2023-04-06T06:09:57;51991.72;;;-144.14;85.09
7075;BME280;3578;51.568;6.932;2023-04-06T06:12:24;51969.69;;;-144.14;85.53
7075;BME280;3578;51.568;6.932;2023-04-06T06:14:51;52158.00;;;-144.14;82.24
7075;BME280;3578;51.568;6.932;2023-04-06T06:17:20;52228.13;;;-144.14;81.38
7075;BME280;3578;51.568;6.932;2023-04-06T06:19:47;52336.31;;;-144.14;77.59
7075;BME280;3578;51.568;6.932;2023-04-06T06:22:14;52372.38;;;-144.14;79.34
7075;BME280;3578;51.568;6.932;2023-04-06T06:24:41;52578.75;;;-144.14;75.79
7075;BME280;3578;51.568;6.932;2023-04-06T06:27:08;52656.91;;;-144.14;73.28
7075;BME280;3578;51.568;6.932;2023-04-06T06:29:35;52743.06;;;-144.14;69.38
7075;BME280;3578;51.568;6.932;2023-04-06T06:32:02;52789.16;;;-144.14;70.81
7075;BME280;3578;51.568;6.932;2023-04-06T06:34:31;52943.47;;;-144.14;62.33
7075;BME280;3578;51.568;6.932;2023-04-06T06:36:58;53037.66;;;-144.14;63.32
7075;BME280;3578;51.568;6.932;2023-04-06T06:39:25;53224.03;;;-144.14;54.46
7075;BME280;3578;51.568;6.932;2023-04-06T06:41:52;53330.25;;;-144.14;53.42
7075;BME280;3578;51.568;6.932;2023-04-06T06:44:20;53404.38;;;-144.14;50.88
7075;BME280;3578;51.568;6.932;2023-04-06T06:46:48;53350.28;;;-144.14;55.20
7075;BME280;3578;51.568;6.932;2023-04-06T06:49:15;53270.13;;;-144.14;61.47
7075;BME280;3578;51.568;6.932;2023-04-06T06:51:44;53242.06;;;-144.14;64.50
7075;BME280;3578;51.568;6.932;2023-04-06T06:54:12;53220.00;;;-144.14;64.49
7075;BME280;3578;51.568;6.932;2023-04-06T06:56:39;53290.16;;;-144.14;59.31
7075;BME280;3578;51.568;6.932;2023-04-06T06:59:06;53346.28;;;-144.14;54.74
7075;BME280;3578;51.568;6.932;2023-04-06T07:01:34;53438.47;;;-144.14;54.44
7075;BME280;3578;51.568;6.932;2023-04-06T07:04:01;53490.56;;;-144.14;50.05
7075;BME280;3578;51.568;6.932;2023-04-06T07:06:28;53504.59;;;-144.14;50.49
7075;BME280;3578;51.568;6.932;2023-04-06T07:08:57;53598.81;;;-144.14;45.34
7075;BME280;3578;51.568;6.932;2023-04-06T07:11:24;53628.88;;;-144.14;44.02
7075;BME280;3578;51.568;6.932;2023-04-06T07:13:51;53723.06;;;-144.14;43.49
7075;BME280;3578;51.568;6.932;2023-04-06T07:16:19;53901.47;;;-144.14;41.82
7075;BME280;3578;51.568;6.932;2023-04-06T07:18:46;54140.00;;;-144.14;38.72
7075;BME280;3578;51.568;6.932;2023-04-06T07:21:13;54532.94;;;-144.14;37.20
7075;BME280;3578;51.568;6.932;2023-04-06T07:23:41;55068.28;;;-144.14;35.04
7075;BME280;3578;51.568;6.932;2023-04-06T07:26:09;55399.13;;;-144.14;31.20
7075;BME280;3578;51.568;6.932;2023-04-06T07:28:36;55435.25;;;-144.14;29.06
7075;BME280;3578;51.568;6.932;2023-04-06T07:31:03;55461.31;;;-144.14;29.81
7075;BME280;3578;51.568;6.932;2023-04-06T07:33:31;55527.50;;;-144.14;28.38
7075;BME280;3578;51.568;6.932;2023-04-06T07:35:58;55627.75;;;-144.14;28.03
7075;BME280;3578;51.568;6.932;2023-04-06T07:38:25;55850.38;;;-144.14;26.82
7075;BME280;3578;51.568;6.932;2023-04-06T07:40:52;55441.25;;;-144.14;28.99
7075;BME280;3578;51.568;6.932;2023-04-06T07:43:21;55607.72;;;-144.14;30.03
7075;BME280;3578;51.568;6.932;2023-04-06T07:45:48;55828.31;;;-144.14;28.46
7075;BME280;3578;51.568;6.932;2023-04-06T07:48:15;56062.97;;;-144.14;28.53
7075;BME280;3578;51.568;6.932;2023-04-06T07:50:43;56115.13;;;-144.14;28.77
7075;BME280;3578;51.568;6.932;2023-04-06T07:53:10;56273.59;;;-144.14;28.88
7075;BME280;3578;51.568;6.932;2023-04-06T07:55:37;56403.97;;;-144.14;27.20
7075;BME280;3578;51.568;6.932;2023-04-06T07:58:04;56321.72;;;-144.14;26.76
7075;BME280;3578;51.568;6.932;2023-04-06T08:00:33;55782.19;;;-144.14;26.73
7075;BME280;3578;51.568;6.932;2023-04-06T08:03:00;55543.53;;;-144.14;29.51
7075;BME280;3578;51.568;6.932;2023-04-06T08:05:28;55294.88;;;-144.14;29.24
7075;BME280;3578;51.568;6.932;2023-04-06T08:07:55;55020.16;;;-144.14;29.84
7075;BME280;3578;51.568;6.932;2023-04-06T08:10:22;54891.81;;;-144.14;32.29
7075;BME280;3578;51.568;6.932;2023-04-06T08:12:50;54773.53;;;-144.14;30.97
7075;BME280;3578;51.568;6.932;2023-04-06T08:15:17;54615.13;;;-144.14;33.46
7075;BME280;3578;51.568;6.932;2023-04-06T08:17:46;54548.97;;;-144.14;34.97
7075;BME280;3578;51.568;6.932;2023-04-06T08:20:13;54486.81;;;-144.14;34.96
7075;BME280;3578;51.568;6.932;2023-04-06T08:22:40;54432.69;;;-144.14;34.77
7075;BME280;3578;51.568;6.932;2023-04-06T08:25:07;54462.75;;;-144.14;35.17
7075;BME280;3578;51.568;6.932;2023-04-06T08:27:35;54426.69;;;-144.14;34.07
7075;BME280;3578;51.568;6.932;2023-04-06T08:30:02;54452.75;;;-144.14;33.21
7075;BME280;3578;51.568;6.932;2023-04-06T08:32:29;54360.53;;;-144.14;34.63
7075;BME280;3578;51.568;6.932;2023-04-06T08:34:58;54376.56;;;-144.14;34.02
7075;BME280;3578;51.568;6.932;2023-04-06T08:37:25;54370.53;;;-144.14;33.26
7075;BME280;3578;51.568;6.932;2023-04-06T08:39:52;54392.59;;;-144.14;34.79
7075;BME280;3578;51.568;6.932;2023-04-06T08:42:21;54484.81;;;-144.14;34.62
7075;BME280;3578;51.568;6.932;2023-04-06T08:44:49;54468.78;;;-144.14;33.49
7075;BME280;3578;51.568;6.932;2023-04-06T08:47:18;54524.91;;;-144.14;33.97
7075;BME280;3578;51.568;6.932;2023-04-06T08:49:46;54524.91;;;-144.14;32.85
7075;BME280;3578;51.568;6.932;2023-04-06T08:52:16;54559.00;;;-144.14;33.60
7075;BME280;3578;51.568;6.932;2023-04-06T08:54:44;54585.06;;;-144.14;34.15
7075;BME280;3578;51.568;6.932;2023-04-06T08:57:12;54573.03;;;-144.14;32.80
7075;BME280;3578;51.568;6.932;2023-04-06T08:59:39;54486.81;;;-144.14;33.46
7075;BME280;3578;51.568;6.932;2023-04-06T09:02:07;54631.16;;;-144.14;33.26
7075;BME280;3578;51.568;6.932;2023-04-06T09:04:39;54647.22;;;-144.14;31.91
7075;BME280;3578;51.568;6.932;2023-04-06T09:07:06;54625.16;;;-144.14;31.88
7075;BME280;3578;51.568;6.932;2023-04-06T09:09:35;54615.13;;;-144.14;31.27
7075;BME280;3578;51.568;6.932;2023-04-06T09:12:03;54633.19;;;-144.14;32.07
7075;BME280;3578;51.568;6.932;2023-04-06T09:14:35;54633.19;;;-144.14;32.17
7075;BME280;3578;51.568;6.932;2023-04-06T09:17:05;54605.09;;;-144.14;32.18
7075;BME280;3578;51.568;6.932;2023-04-06T09:19:33;54557.00;;;-144.14;32.01
7075;BME280;3578;51.568;6.932;2023-04-06T09:22:03;54565.00;;;-144.14;33.44
7075;BME280;3578;51.568;6.932;2023-04-06T09:24:45;54579.03;;;-144.14;32.19
7075;BME280;3578;51.568;6.932;2023-04-06T09:27:14;54607.13;;;-144.14;32.27
7075;BME280;3578;51.568;6.932;2023-04-06T09:29:42;54595.09;;;-144.14;31.65
7075;BME280;3578;51.568;6.932;2023-04-06T09:32:11;54546.97;;;-144.14;32.19
7075;BME280;3578;51.568;6.932;2023-04-06T09:34:42;54532.94;;;-144.14;32.22
7075;BME280;3578;51.568;6.932;2023-04-06T09:37:15;54591.06;;;-144.14;31.62
7075;BME280;3578;51.568;6.932;2023-04-06T09:39:44;54585.06;;;-144.14;32.89
7075;BME280;3578;51.568;6.932;2023-04-06T09:42:22;54613.13;;;-144.14;32.73
7075;BME280;3578;51.568;6.932;2023-04-06T09:44:49;54681.28;;;-144.14;34.10
7075;BME280;3578;51.568;6.932;2023-04-06T09:47:17;54657.25;;;-144.14;31.15
7075;BME280;3578;51.568;6.932;2023-04-06T09:49:46;54661.25;;;-144.14;32.97
7075;BME280;3578;51.568;6.932;2023-04-06T09:52:15;54687.31;;;-144.14;33.67
7075;BME280;3578;51.568;6.932;2023-04-06T09:54:47;54657.25;;;-144.14;33.20
7075;BME280;3578;51.568;6.932;2023-04-06T09:57:25;54665.25;;;-144.14;33.15
7075;BME280;3578;51.568;6.932;2023-04-06T10:00:02;54659.25;;;-144.14;32.69
7075;BME280;3578;51.568;6.932;2023-04-06T10:02:41;54717.38;;;-144.14;33.02
7075;BME280;3578;51.568;6.932;2023-04-06T10:05:19;54721.41;;;-144.14;32.93
7075;BME280;3578;51.568;6.932;2023-04-06T10:07:48;54727.41;;;-144.14;33.07
7075;BME280;3578;51.568;6.932;2023-04-06T10:10:19;54737.44;;;-144.14;32.65
7075;BME280;3578;51.568;6.932;2023-04-06T10:12:48;54733.44;;;-144.14;34.09
7075;BME280;3578;51.568;6.932;2023-04-06T10:15:15;54727.41;;;-144.14;33.37
7075;BME280;3578;51.568;6.932;2023-04-06T10:17:43;54655.22;;;-144.14;33.33
7075;BME280;3578;51.568;6.932;2023-04-06T10:20:16;54687.31;;;-144.14;33.19
7075;BME280;3578;51.568;6.932;2023-04-06T10:22:54;54633.19;;;-144.14;33.32
7075;BME280;3578;51.568;6.932;2023-04-06T10:25:33;54693.31;;;-144.14;33.35
7075;BME280;3578;51.568;6.932;2023-04-06T10:28:02;54685.31;;;-144.14;33.55
7075;BME280;3578;51.568;6.932;2023-04-06T10:30:32;54737.44;;;-144.14;33.23
7075;BME280;3578;51.568;6.932;2023-04-06T10:32:59;54801.59;;;-144.14;33.25
7075;BME280;3578;51.568;6.932;2023-04-06T10:35:37;54841.69;;;-144.14;32.72
7075;BME280;3578;51.568;6.932;2023-04-06T10:38:05;54853.72;;;-144.14;32.78
7075;BME280;3578;51.568;6.932;2023-04-06T10:40:37;54833.69;;;-144.14;33.27
7075;BME280;3578;51.568;6.932;2023-04-06T10:43:09;54851.72;;;-144.14;33.51
7075;BME280;3578;51.568;6.932;2023-04-06T10:45:36;54841.69;;;-144.14;32.93
7075;BME280;3578;51.568;6.932;2023-04-06T10:48:13;54817.63;;;-144.14;31.78
7075;BME280;3578;51.568;6.932;2023-04-06T10:50:43;54877.78;;;-144.14;33.46
7075;BME280;3578;51.568;6.932;2023-04-06T10:53:10;54813.63;;;-144.14;32.95
7075;BME280;3578;51.568;6.932;2023-04-06T10:55:40;54823.66;;;-144.14;33.06
7075;BME280;3578;51.568;6.932;2023-04-06T10:58:07;54837.69;;;-144.14;34.02
7075;BME280;3578;51.568;6.932;2023-04-06T11:00:35;54873.78;;;-144.14;33.44
7075;BME280;3578;51.568;6.932;2023-04-06T11:03:02;54823.66;;;-144.14;33.81
7075;BME280;3578;51.568;6.932;2023-04-06T11:05:29;54843.69;;;-144.14;33.51
7075;BME280;3578;51.568;6.932;2023-04-06T11:07:57;54827.66;;;-144.14;33.75
7075;BME280;3578;51.568;6.932;2023-04-06T11:10:24;54801.59;;;-144.14;33.49
7075;BME280;3578;51.568;6.932;2023-04-06T11:12:56;54853.72;;;-144.14;33.66
7075;BME280;3578;51.568;6.932;2023-04-06T11:15:23;54825.66;;;-144.14;33.75
7075;BME280;3578;51.568;6.932;2023-04-06T11:17:50;54863.75;;;-144.14;33.74
7075;BME280;3578;51.568;6.932;2023-04-06T11:20:17;54893.81;;;-144.14;32.95
7075;BME280;3578;51.568;6.932;2023-04-06T11:22:50;54935.94;;;-144.14;33.60
7075;BME280;3578;51.568;6.932;2023-04-06T11:25:18;54927.91;;;-144.14;32.92
7075;BME280;3578;51.568;6.932;2023-04-06T11:27:45;54962.00;;;-144.14;33.47
7075;BME280;3578;51.568;6.932;2023-04-06T11:30:15;54889.81;;;-144.14;31.91
7075;BME280;3578;51.568;6.932;2023-04-06T11:32:43;54909.88;;;-144.14;32.79
7075;BME280;3578;51.568;6.932;2023-04-06T11:35:20;54849.72;;;-144.14;32.08
7075;BME280;3578;51.568;6.932;2023-04-06T11:37:48;54935.94;;;-144.14;32.90
7075;BME280;3578;51.568;6.932;2023-04-06T11:40:20;54889.81;;;-144.14;33.60
7075;BME280;3578;51.568;6.932;2023-04-06T11:42:53;54809.63;;;-144.14;34.36
7075;BME280;3578;51.568;6.932;2023-04-06T11:45:22;54881.78;;;-144.14;33.59
7075;BME280;3578;51.568;6.932;2023-04-06T11:47:56;54865.75;;;-144.14;34.49
7075;BME280;3578;51.568;6.932;2023-04-06T11:50:25;54865.75;;;-144.14;33.18
7075;BME280;3578;51.568;6.932;2023-04-06T11:53:00;54879.78;;;-144.14;34.09
7075;BME280;3578;51.568;6.932;2023-04-06T11:55:27;54883.81;;;-144.14;34.34
7075;BME280;3578;51.568;6.932;2023-04-06T11:57:54;54829.66;;;-144.14;34.01
7075;BME280;3578;51.568;6.932;2023-04-06T12:00:23;54849.72;;;-144.14;34.26
7075;BME280;3578;51.568;6.932;2023-04-06T12:02:50;54799.59;;;-144.14;33.63
7075;BME280;3578;51.568;6.932;2023-04-06T12:05:18;54781.53;;;-144.14;33.74
7075;BME280;3578;51.568;6.932;2023-04-06T12:07:45;54825.66;;;-144.14;34.27
7075;BME280;3578;51.568;6.932;2023-04-06T12:10:12;54761.50;;;-144.14;33.85
7075;BME280;3578;51.568;6.932;2023-04-06T12:12:39;54743.44;;;-144.14;33.89
7075;BME280;3578;51.568;6.932;2023-04-06T12:15:08;54717.38;;;-144.14;34.91
7075;BME280;3578;51.568;6.932;2023-04-06T12:17:36;54741.44;;;-144.14;35.49
7075;BME280;3578;51.568;6.932;2023-04-06T12:20:04;54705.34;;;-144.14;35.57
7075;BME280;3578;51.568;6.932;2023-04-06T12:22:32;54709.38;;;-144.14;34.91
7075;BME280;3578;51.568;6.932;2023-04-06T12:24:59;54655.22;;;-144.14;35.16
7075;BME280;3578;51.568;6.932;2023-04-06T12:27:26;54711.38;;;-144.14;36.53
7075;BME280;3578;51.568;6.932;2023-04-06T12:29:54;54731.41;;;-144.14;35.42
7075;BME280;3578;51.568;6.932;2023-04-06T12:32:21;54749.47;;;-144.14;35.31
7075;BME280;3578;51.568;6.932;2023-04-06T12:34:52;54751.47;;;-144.14;36.51
7075;BME280;3578;51.568;6.932;2023-04-06T12:37:19;54745.47;;;-144.14;36.48
7075;BME280;3578;51.568;6.932;2023-04-06T12:39:47;54725.41;;;-144.14;36.30
7075;BME280;3578;51.568;6.932;2023-04-06T12:42:14;54721.41;;;-144.14;36.76
7075;BME280;3578;51.568;6.932;2023-04-06T12:44:41;54701.34;;;-144.14;36.61
7075;BME280;3578;51.568;6.932;2023-04-06T12:47:09;54643.19;;;-144.14;36.40
7075;BME280;3578;51.568;6.932;2023-04-06T12:49:37;54639.19;;;-144.14;37.22
7075;BME280;3578;51.568;6.932;2023-04-06T12:52:05;54685.31;;;-144.14;37.36
7075;BME280;3578;51.568;6.932;2023-04-06T12:54:32;54663.25;;;-144.14;36.72
7075;BME280;3578;51.568;6.932;2023-04-06T12:56:59;54689.31;;;-144.14;37.64
7075;BME280;3578;51.568;6.932;2023-04-06T12:59:26;54705.34;;;-144.14;36.35
7075;BME280;3578;51.568;6.932;2023-04-06T13:02:00;54687.31;;;-144.14;36.35
7075;BME280;3578;51.568;6.932;2023-04-06T13:04:27;54725.41;;;-144.14;37.77